Wichita, KS (67277)

8:21 AM CDT on August 28, 2015 (GMT -0500)
Near the airport | | Change Station
CLOSE
Current Station
Personal Weather Station
Location: Wichita, KS
Elevation: 1348 ft
Nearby Weather Stations

Elev 1348 ft 37.65 °N, 97.44 °W | Updated 13 seconds ago

Overcast
Overcast
71.1 °F
Feels Like 71.1 °F
N
5.0
Wind Variable Wind from South
Gusts 12.0 mph

Today
High -- | Low -- °F
--% Chance of Precip.
Yesterday
High -- | Low -- °F
Precip. -- in
6:56 AM 8:04 PM
Waxing Gibbous, 98% visible
Pressure 29.89 in
Visibility 10.0 miles
Clouds Few 3500 ft
Mostly Cloudy 9500 ft
Overcast 11000 ft
Dew Point 67 °F
Humidity 86%
Rainfall 0.09 in
Snow Depth Not available.
UV 0 out of 12
Pollen 8.40 out of 12
Air Quality Not available.
Flu Activity Not available.
METAR KICT 281253Z 18013KT 10SM FEW035 BKN095 OVC110 22/19 A2993 RMK AO2 RAB06E20 SLP120 P0000 T02220194
Pressure 29.89 in
Visibility 10.0 miles
Clouds Few 3500 ft
Mostly Cloudy 9500 ft
Overcast 11000 ft
Dew Point 67 °F
Humidity 86%
Rainfall 0.09 in
Snow Depth Not available.
UV 0 out of 12
Pollen 8.40 out of 12
Air Quality Not available.
Flu Activity Not available.
METAR KICT 281253Z 18013KT 10SM FEW035 BKN095 OVC110 22/19 A2993 RMK AO2 RAB06E20 SLP120 P0000 T02220194

10-Day Weather Forecast

×

Almanac

Astronomy

Aug. 28, 2015 Rise Set
Actual Time
Civil Twilight
Nautical Twilight
Astronomical Twilight
Moon
Length of Visible Light
Length of Day
Tomorrow will be .
, % of the Moon is Illuminated

Today's Extremes

State Highs State Lows

Community

WunderPhotos

Upload Photos

1,850,375 photos uploaded!

WunderBlogs® & News

Nearby

Air Quality

  Air Quality AQ Index Pollutant
Not available.

Snow Depth

Station Depth Elevation

Earthquake Activity

City Distance Mag. Time & Date
Minimum magnitude displayed is 2.5.

Coastal Water Temperatures

Place Temperature

Stations

Nearby Weather Stations

Station Location Temp. Windchill Dew Point Humidity Wind Precip. Elev Updated Type